sensor_id;sensor_type;location;lat;lon;timestamp;P1;durP1;ratioP1;P2;durP2;ratioP2
5355;SDS011;70449;52.486;13.386;2023-06-04T00:00:23;6.73;;;3.07;;
5355;SDS011;70449;52.486;13.386;2023-06-04T00:02:50;13.47;;;4.30;;
5355;SDS011;70449;52.486;13.386;2023-06-04T00:05:19;4.57;;;3.37;;
5355;SDS011;70449;52.486;13.386;2023-06-04T00:07:50;4.10;;;2.73;;
5355;SDS011;70449;52.486;13.386;2023-06-04T00:10:17;4.90;;;3.33;;
5355;SDS011;70449;52.486;13.386;2023-06-04T00:12:45;9.20;;;3.27;;
5355;SDS011;70449;52.486;13.386;2023-06-04T00:15:12;5.73;;;2.50;;
5355;SDS011;70449;52.486;13.386;2023-06-04T00:17:41;3.93;;;2.40;;
5355;SDS011;70449;52.486;13.386;2023-06-04T00:20:09;3.80;;;2.77;;
5355;SDS011;70449;52.486;13.386;2023-06-04T00:22:39;4.63;;;2.50;;
5355;SDS011;70449;52.486;13.386;2023-06-04T00:25:07;3.83;;;2.20;;
5355;SDS011;70449;52.486;13.386;2023-06-04T00:27:35;8.00;;;2.53;;
5355;SDS011;70449;52.486;13.386;2023-06-04T00:30:03;5.50;;;2.37;;
5355;SDS011;70449;52.486;13.386;2023-06-04T00:32:31;4.30;;;2.47;;
5355;SDS011;70449;52.486;13.386;2023-06-04T00:34:59;2.90;;;1.87;;
5355;SDS011;70449;52.486;13.386;2023-06-04T00:37:27;6.90;;;2.60;;
5355;SDS011;70449;52.486;13.386;2023-06-04T00:39:56;3.53;;;2.20;;
5355;SDS011;70449;52.486;13.386;2023-06-04T00:42:23;5.93;;;2.23;;
5355;SDS011;70449;52.486;13.386;2023-06-04T00:44:51;3.43;;;2.43;;
5355;SDS011;70449;52.486;13.386;2023-06-04T00:47:18;2.70;;;2.00;;
5355;SDS011;70449;52.486;13.386;2023-06-04T00:49:47;2.33;;;2.03;;
5355;SDS011;70449;52.486;13.386;2023-06-04T00:52:14;2.40;;;2.20;;
5355;SDS011;70449;52.486;13.386;2023-06-04T00:54:42;7.67;;;3.43;;
5355;SDS011;70449;52.486;13.386;2023-06-04T00:57:11;7.63;;;2.30;;
5355;SDS011;70449;52.486;13.386;2023-06-04T00:59:38;5.03;;;2.50;;
5355;SDS011;70449;52.486;13.386;2023-06-04T01:02:08;9.60;;;2.60;;
5355;SDS011;70449;52.486;13.386;2023-06-04T01:04:42;4.50;;;2.67;;
5355;SDS011;70449;52.486;13.386;2023-06-04T01:07:14;9.83;;;2.43;;
5355;SDS011;70449;52.486;13.386;2023-06-04T01:09:43;5.53;;;2.67;;
5355;SDS011;70449;52.486;13.386;2023-06-04T01:12:13;12.93;;;2.63;;
5355;SDS011;70449;52.486;13.386;2023-06-04T01:14:40;2.43;;;2.23;;
5355;SDS011;70449;52.486;13.386;2023-06-04T01:17:11;6.67;;;2.47;;
5355;SDS011;70449;52.486;13.386;2023-06-04T01:19:57;3.50;;;2.10;;
5355;SDS011;70449;52.486;13.386;2023-06-04T01:22:48;2.53;;;2.00;;
5355;SDS011;70449;52.486;13.386;2023-06-04T01:25:52;7.73;;;2.70;;
5355;SDS011;70449;52.486;13.386;2023-06-04T01:28:24;3.20;;;1.93;;
5355;SDS011;70449;52.486;13.386;2023-06-04T01:30:52;2.87;;;2.00;;
5355;SDS011;70449;52.486;13.386;2023-06-04T01:33:21;2.87;;;2.17;;
5355;SDS011;70449;52.486;13.386;2023-06-04T01:35:49;3.47;;;2.47;;
5355;SDS011;70449;52.486;13.386;2023-06-04T01:38:17;2.87;;;2.43;;
5355;SDS011;70449;52.486;13.386;2023-06-04T01:40:44;5.23;;;2.10;;
5355;SDS011;70449;52.486;13.386;2023-06-04T01:43:12;7.60;;;2.30;;
5355;SDS011;70449;52.486;13.386;2023-06-04T01:45:41;10.53;;;2.90;;
5355;SDS011;70449;52.486;13.386;2023-06-04T01:48:08;3.07;;;2.00;;
5355;SDS011;70449;52.486;13.386;2023-06-04T01:50:35;6.07;;;2.33;;
5355;SDS011;70449;52.486;13.386;2023-06-04T01:53:03;3.80;;;1.90;;
5355;SDS011;70449;52.486;13.386;2023-06-04T01:55:30;5.00;;;1.73;;
5355;SDS011;70449;52.486;13.386;2023-06-04T01:57:58;4.00;;;2.77;;
5355;SDS011;70449;52.486;13.386;2023-06-04T02:00:26;3.33;;;2.33;;
5355;SDS011;70449;52.486;13.386;2023-06-04T02:02:55;5.33;;;1.93;;
5355;SDS011;70449;52.486;13.386;2023-06-04T02:05:23;6.10;;;2.43;;
5355;SDS011;70449;52.486;13.386;2023-06-04T02:07:51;4.83;;;1.63;;
5355;SDS011;70449;52.486;13.386;2023-06-04T02:10:18;2.17;;;1.70;;
5355;SDS011;70449;52.486;13.386;2023-06-04T02:12:53;3.60;;;1.93;;
5355;SDS011;70449;52.486;13.386;2023-06-04T02:15:22;3.43;;;2.27;;
5355;SDS011;70449;52.486;13.386;2023-06-04T02:17:50;3.67;;;2.30;;
5355;SDS011;70449;52.486;13.386;2023-06-04T02:20:24;2.37;;;1.87;;
5355;SDS011;70449;52.486;13.386;2023-06-04T02:22:53;3.33;;;1.97;;
5355;SDS011;70449;52.486;13.386;2023-06-04T02:25:21;4.30;;;2.30;;
5355;SDS011;70449;52.486;13.386;2023-06-04T02:27:49;4.60;;;2.90;;
5355;SDS011;70449;52.486;13.386;2023-06-04T02:30:16;2.20;;;2.00;;
5355;SDS011;70449;52.486;13.386;2023-06-04T02:32:44;2.80;;;1.83;;
5355;SDS011;70449;52.486;13.386;2023-06-04T02:35:13;4.13;;;2.43;;
5355;SDS011;70449;52.486;13.386;2023-06-04T02:37:40;6.73;;;2.40;;
5355;SDS011;70449;52.486;13.386;2023-06-04T02:40:08;5.17;;;2.00;;
5355;SDS011;70449;52.486;13.386;2023-06-04T02:42:37;3.83;;;2.40;;
5355;SDS011;70449;52.486;13.386;2023-06-04T02:45:04;2.03;;;1.80;;
5355;SDS011;70449;52.486;13.386;2023-06-04T02:47:33;3.43;;;2.03;;
5355;SDS011;70449;52.486;13.386;2023-06-04T02:50:00;3.20;;;2.13;;
5355;SDS011;70449;52.486;13.386;2023-06-04T02:52:30;4.23;;;2.03;;
5355;SDS011;70449;52.486;13.386;2023-06-04T02:54:58;3.20;;;2.00;;
5355;SDS011;70449;52.486;13.386;2023-06-04T02:57:28;7.53;;;2.43;;
5355;SDS011;70449;52.486;13.386;2023-06-04T02:59:56;5.17;;;2.43;;
5355;SDS011;70449;52.486;13.386;2023-06-04T03:02:23;7.87;;;2.87;;
5355;SDS011;70449;52.486;13.386;2023-06-04T03:04:51;12.63;;;2.20;;
5355;SDS011;70449;52.486;13.386;2023-06-04T03:07:20;3.73;;;2.43;;
5355;SDS011;70449;52.486;13.386;2023-06-04T03:09:49;3.60;;;2.50;;
5355;SDS011;70449;52.486;13.386;2023-06-04T03:12:16;3.77;;;2.30;;
5355;SDS011;70449;52.486;13.386;2023-06-04T03:14:44;3.30;;;2.20;;
5355;SDS011;70449;52.486;13.386;2023-06-04T03:17:11;6.13;;;2.33;;
5355;SDS011;70449;52.486;13.386;2023-06-04T03:19:40;3.73;;;2.17;;
5355;SDS011;70449;52.486;13.386;2023-06-04T03:22:08;6.43;;;2.30;;
5355;SDS011;70449;52.486;13.386;2023-06-04T03:24:37;4.60;;;2.17;;
5355;SDS011;70449;52.486;13.386;2023-06-04T03:27:07;4.77;;;2.17;;
5355;SDS011;70449;52.486;13.386;2023-06-04T03:29:36;4.07;;;2.73;;
5355;SDS011;70449;52.486;13.386;2023-06-04T03:32:04;2.83;;;2.20;;
5355;SDS011;70449;52.486;13.386;2023-06-04T03:34:33;19.07;;;2.60;;
5355;SDS011;70449;52.486;13.386;2023-06-04T03:37:00;9.13;;;2.87;;
5355;SDS011;70449;52.486;13.386;2023-06-04T03:39:28;3.17;;;2.23;;
5355;SDS011;70449;52.486;13.386;2023-06-04T03:41:55;7.03;;;2.40;;
5355;SDS011;70449;52.486;13.386;2023-06-04T03:44:24;8.23;;;2.77;;
5355;SDS011;70449;52.486;13.386;2023-06-04T03:46:51;6.13;;;2.77;;
5355;SDS011;70449;52.486;13.386;2023-06-04T03:49:18;6.40;;;2.67;;
5355;SDS011;70449;52.486;13.386;2023-06-04T03:51:47;4.57;;;2.37;;
5355;SDS011;70449;52.486;13.386;2023-06-04T03:54:14;2.90;;;2.30;;
5355;SDS011;70449;52.486;13.386;2023-06-04T03:56:43;2.23;;;2.03;;
5355;SDS011;70449;52.486;13.386;2023-06-04T03:59:10;9.70;;;2.30;;
5355;SDS011;70449;52.486;13.386;2023-06-04T04:01:39;3.20;;;2.00;;
5355;SDS011;70449;52.486;13.386;2023-06-04T04:04:08;8.13;;;2.73;;
5355;SDS011;70449;52.486;13.386;2023-06-04T04:06:35;5.10;;;2.37;;
5355;SDS011;70449;52.486;13.386;2023-06-04T04:09:03;3.20;;;2.20;;
5355;SDS011;70449;52.486;13.386;2023-06-04T04:11:31;7.33;;;1.93;;
5355;SDS011;70449;52.486;13.386;2023-06-04T04:13:58;4.67;;;2.57;;
5355;SDS011;70449;52.486;13.386;2023-06-04T04:16:26;1.90;;;1.80;;
5355;SDS011;70449;52.486;13.386;2023-06-04T04:18:55;4.67;;;2.50;;
5355;SDS011;70449;52.486;13.386;2023-06-04T04:21:22;3.27;;;1.80;;
5355;SDS011;70449;52.486;13.386;2023-06-04T04:23:50;2.57;;;2.27;;
5355;SDS011;70449;52.486;13.386;2023-06-04T04:26:17;8.47;;;2.20;;
5355;SDS011;70449;52.486;13.386;2023-06-04T04:28:45;7.07;;;2.00;;
5355;SDS011;70449;52.486;13.386;2023-06-04T04:31:12;2.40;;;1.80;;
5355;SDS011;70449;52.486;13.386;2023-06-04T04:33:39;2.33;;;1.97;;
5355;SDS011;70449;52.486;13.386;2023-06-04T04:36:08;3.07;;;2.10;;
5355;SDS011;70449;52.486;13.386;2023-06-04T04:38:37;2.33;;;1.67;;
5355;SDS011;70449;52.486;13.386;2023-06-04T04:41:05;3.07;;;2.10;;
5355;SDS011;70449;52.486;13.386;2023-06-04T04:43:34;4.53;;;2.00;;
5355;SDS011;70449;52.486;13.386;2023-06-04T04:46:02;3.40;;;2.00;;
5355;SDS011;70449;52.486;13.386;2023-06-04T04:48:30;8.63;;;2.00;;
5355;SDS011;70449;52.486;13.386;2023-06-04T04:50:58;2.90;;;2.07;;
5355;SDS011;70449;52.486;13.386;2023-06-04T04:53:27;4.43;;;2.40;;
5355;SDS011;70449;52.486;13.386;2023-06-04T04:55:54;5.93;;;2.60;;
5355;SDS011;70449;52.486;13.386;2023-06-04T04:58:21;6.40;;;2.43;;
5355;SDS011;70449;52.486;13.386;2023-06-04T05:00:49;6.10;;;2.10;;
5355;SDS011;70449;52.486;13.386;2023-06-04T05:03:16;8.20;;;2.00;;
5355;SDS011;70449;52.486;13.386;2023-06-04T05:05:44;3.27;;;2.07;;
5355;SDS011;70449;52.486;13.386;2023-06-04T05:08:11;5.00;;;2.30;;
5355;SDS011;70449;52.486;13.386;2023-06-04T05:10:39;6.87;;;2.00;;
5355;SDS011;70449;52.486;13.386;2023-06-04T05:13:07;5.03;;;2.43;;
5355;SDS011;70449;52.486;13.386;2023-06-04T05:15:36;12.87;;;2.30;;
5355;SDS011;70449;52.486;13.386;2023-06-04T05:18:05;10.10;;;2.27;;
5355;SDS011;70449;52.486;13.386;2023-06-04T05:20:32;7.90;;;1.93;;
5355;SDS011;70449;52.486;13.386;2023-06-04T05:23:02;1.93;;;1.73;;
5355;SDS011;70449;52.486;13.386;2023-06-04T05:25:30;4.20;;;2.00;;
5355;SDS011;70449;52.486;13.386;2023-06-04T05:27:58;7.67;;;2.67;;
5355;SDS011;70449;52.486;13.386;2023-06-04T05:30:26;3.93;;;2.23;;
5355;SDS011;70449;52.486;13.386;2023-06-04T05:32:53;3.80;;;2.17;;
5355;SDS011;70449;52.486;13.386;2023-06-04T05:35:20;3.97;;;2.60;;
5355;SDS011;70449;52.486;13.386;2023-06-04T05:37:47;5.37;;;2.57;;
5355;SDS011;70449;52.486;13.386;2023-06-04T05:40:18;4.70;;;1.80;;
5355;SDS011;70449;52.486;13.386;2023-06-04T05:42:47;5.13;;;2.50;;
5355;SDS011;70449;52.486;13.386;2023-06-04T05:45:16;8.30;;;2.50;;
5355;SDS011;70449;52.486;13.386;2023-06-04T05:47:43;5.07;;;2.10;;
5355;SDS011;70449;52.486;13.386;2023-06-04T05:50:11;4.70;;;2.20;;
5355;SDS011;70449;52.486;13.386;2023-06-04T05:52:38;6.20;;;2.27;;
5355;SDS011;70449;52.486;13.386;2023-06-04T05:55:05;5.30;;;2.63;;
5355;SDS011;70449;52.486;13.386;2023-06-04T05:57:34;2.70;;;1.97;;
5355;SDS011;70449;52.486;13.386;2023-06-04T06:00:01;2.17;;;1.83;;
5355;SDS011;70449;52.486;13.386;2023-06-04T06:02:35;4.20;;;1.97;;
5355;SDS011;70449;52.486;13.386;2023-06-04T06:05:02;3.47;;;2.10;;
5355;SDS011;70449;52.486;13.386;2023-06-04T06:07:31;3.07;;;2.10;;
5355;SDS011;70449;52.486;13.386;2023-06-04T06:09:58;3.93;;;1.67;;
5355;SDS011;70449;52.486;13.386;2023-06-04T06:12:25;3.27;;;2.13;;
5355;SDS011;70449;52.486;13.386;2023-06-04T06:14:52;2.50;;;1.73;;
5355;SDS011;70449;52.486;13.386;2023-06-04T06:17:19;6.47;;;1.80;;
5355;SDS011;70449;52.486;13.386;2023-06-04T06:19:49;5.10;;;1.60;;
5355;SDS011;70449;52.486;13.386;2023-06-04T06:22:16;6.53;;;1.77;;
5355;SDS011;70449;52.486;13.386;2023-06-04T06:24:44;3.20;;;1.90;;
5355;SDS011;70449;52.486;13.386;2023-06-04T06:27:13;2.33;;;1.60;;
5355;SDS011;70449;52.486;13.386;2023-06-04T06:29:41;3.17;;;1.50;;
5355;SDS011;70449;52.486;13.386;2023-06-04T06:32:09;3.37;;;2.00;;
5355;SDS011;70449;52.486;13.386;2023-06-04T06:34:37;2.70;;;1.60;;
5355;SDS011;70449;52.486;13.386;2023-06-04T06:37:07;2.23;;;1.50;;
5355;SDS011;70449;52.486;13.386;2023-06-04T06:39:34;3.03;;;1.70;;
5355;SDS011;70449;52.486;13.386;2023-06-04T06:42:02;5.50;;;1.77;;
5355;SDS011;70449;52.486;13.386;2023-06-04T06:44:30;2.00;;;1.70;;
5355;SDS011;70449;52.486;13.386;2023-06-04T06:46:57;1.97;;;1.30;;
5355;SDS011;70449;52.486;13.386;2023-06-04T06:49:24;9.37;;;1.73;;
5355;SDS011;70449;52.486;13.386;2023-06-04T06:51:52;4.10;;;1.77;;
5355;SDS011;70449;52.486;13.386;2023-06-04T06:54:22;2.43;;;1.80;;
5355;SDS011;70449;52.486;13.386;2023-06-04T06:56:49;3.20;;;1.80;;
5355;SDS011;70449;52.486;13.386;2023-06-04T06:59:16;4.03;;;1.57;;
5355;SDS011;70449;52.486;13.386;2023-06-04T07:01:43;2.60;;;1.67;;
5355;SDS011;70449;52.486;13.386;2023-06-04T07:04:12;12.70;;;1.70;;
5355;SDS011;70449;52.486;13.386;2023-06-04T07:06:39;3.30;;;2.10;;
5355;SDS011;70449;52.486;13.386;2023-06-04T07:09:06;10.33;;;1.30;;
5355;SDS011;70449;52.486;13.386;2023-06-04T07:11:35;4.67;;;1.73;;
5355;SDS011;70449;52.486;13.386;2023-06-04T07:14:03;8.00;;;1.30;;
5355;SDS011;70449;52.486;13.386;2023-06-04T07:16:30;7.63;;;1.47;;
5355;SDS011;70449;52.486;13.386;2023-06-04T07:18:57;2.53;;;1.40;;
5355;SDS011;70449;52.486;13.386;2023-06-04T07:21:24;10.43;;;1.80;;
5355;SDS011;70449;52.486;13.386;2023-06-04T07:23:52;2.07;;;1.70;;
5355;SDS011;70449;52.486;13.386;2023-06-04T07:26:19;1.50;;;1.20;;
5355;SDS011;70449;52.486;13.386;2023-06-04T07:28:48;3.47;;;1.63;;
5355;SDS011;70449;52.486;13.386;2023-06-04T07:31:15;3.10;;;1.73;;
5355;SDS011;70449;52.486;13.386;2023-06-04T07:33:43;8.10;;;2.03;;
5355;SDS011;70449;52.486;13.386;2023-06-04T07:36:10;2.43;;;1.23;;
5355;SDS011;70449;52.486;13.386;2023-06-04T07:38:38;5.17;;;1.80;;
5355;SDS011;70449;52.486;13.386;2023-06-04T07:41:06;3.97;;;1.53;;
5355;SDS011;70449;52.486;13.386;2023-06-04T07:43:33;3.30;;;1.70;;
5355;SDS011;70449;52.486;13.386;2023-06-04T07:46:02;7.43;;;1.83;;
5355;SDS011;70449;52.486;13.386;2023-06-04T07:48:30;8.07;;;1.73;;
5355;SDS011;70449;52.486;13.386;2023-06-04T07:50:58;6.10;;;1.80;;
5355;SDS011;70449;52.486;13.386;2023-06-04T07:53:26;1.80;;;1.23;;
5355;SDS011;70449;52.486;13.386;2023-06-04T07:55:54;2.37;;;1.30;;
5355;SDS011;70449;52.486;13.386;2023-06-04T07:58:22;4.73;;;1.70;;
5355;SDS011;70449;52.486;13.386;2023-06-04T08:00:50;6.23;;;1.67;;
5355;SDS011;70449;52.486;13.386;2023-06-04T08:03:19;3.33;;;1.20;;
5355;SDS011;70449;52.486;13.386;2023-06-04T08:05:46;18.13;;;1.67;;
5355;SDS011;70449;52.486;13.386;2023-06-04T08:08:14;2.40;;;1.43;;
5355;SDS011;70449;52.486;13.386;2023-06-04T08:10:41;3.97;;;1.33;;
5355;SDS011;70449;52.486;13.386;2023-06-04T08:13:09;10.37;;;2.60;;
5355;SDS011;70449;52.486;13.386;2023-06-04T08:15:36;2.80;;;1.30;;
5355;SDS011;70449;52.486;13.386;2023-06-04T08:18:03;2.60;;;1.83;;
5355;SDS011;70449;52.486;13.386;2023-06-04T08:20:32;2.13;;;1.53;;
5355;SDS011;70449;52.486;13.386;2023-06-04T08:22:59;3.97;;;1.20;;
5355;SDS011;70449;52.486;13.386;2023-06-04T08:25:26;1.73;;;1.50;;
5355;SDS011;70449;52.486;13.386;2023-06-04T08:27:54;2.23;;;1.50;;
5355;SDS011;70449;52.486;13.386;2023-06-04T08:30:22;4.30;;;1.67;;
5355;SDS011;70449;52.486;13.386;2023-06-04T08:32:50;5.97;;;1.50;;
5355;SDS011;70449;52.486;13.386;2023-06-04T08:35:18;4.30;;;1.47;;
5355;SDS011;70449;52.486;13.386;2023-06-04T08:37:46;3.93;;;1.37;;
5355;SDS011;70449;52.486;13.386;2023-06-04T08:40:14;2.80;;;1.43;;
5355;SDS011;70449;52.486;13.386;2023-06-04T08:42:41;2.63;;;1.40;;
5355;SDS011;70449;52.486;13.386;2023-06-04T08:45:11;1.93;;;1.53;;
5355;SDS011;70449;52.486;13.386;2023-06-04T08:47:40;1.63;;;1.40;;
5355;SDS011;70449;52.486;13.386;2023-06-04T08:50:14;1.87;;;1.47;;
5355;SDS011;70449;52.486;13.386;2023-06-04T08:52:44;2.27;;;1.40;;
5355;SDS011;70449;52.486;13.386;2023-06-04T08:55:14;4.23;;;1.53;;
5355;SDS011;70449;52.486;13.386;2023-06-04T08:57:41;3.10;;;1.60;;
5355;SDS011;70449;52.486;13.386;2023-06-04T09:00:10;2.80;;;1.40;;
5355;SDS011;70449;52.486;13.386;2023-06-04T09:02:38;2.27;;;1.37;;
5355;SDS011;70449;52.486;13.386;2023-06-04T09:05:06;5.53;;;1.43;;
5355;SDS011;70449;52.486;13.386;2023-06-04T09:07:35;1.50;;;1.20;;
5355;SDS011;70449;52.486;13.386;2023-06-04T09:10:07;1.20;;;1.00;;
5355;SDS011;70449;52.486;13.386;2023-06-04T09:12:37;3.77;;;1.30;;
5355;SDS011;70449;52.486;13.386;2023-06-04T09:15:09;3.50;;;1.50;;
5355;SDS011;70449;52.486;13.386;2023-06-04T09:17:36;9.47;;;1.83;;
5355;SDS011;70449;52.486;13.386;2023-06-04T09:20:05;2.57;;;1.40;;
5355;SDS011;70449;52.486;13.386;2023-06-04T09:22:33;1.50;;;1.13;;
5355;SDS011;70449;52.486;13.386;2023-06-04T09:25:03;2.43;;;1.33;;
5355;SDS011;70449;52.486;13.386;2023-06-04T09:27:45;4.63;;;1.57;;
5355;SDS011;70449;52.486;13.386;2023-06-04T09:30:12;2.97;;;1.40;;
5355;SDS011;70449;52.486;13.386;2023-06-04T09:32:39;2.50;;;1.73;;
5355;SDS011;70449;52.486;13.386;2023-06-04T09:35:10;3.90;;;1.50;;
5355;SDS011;70449;52.486;13.386;2023-06-04T09:37:39;4.23;;;1.60;;
5355;SDS011;70449;52.486;13.386;2023-06-04T09:40:09;3.57;;;1.50;;
5355;SDS011;70449;52.486;13.386;2023-06-04T09:42:43;2.03;;;1.17;;
5355;SDS011;70449;52.486;13.386;2023-06-04T09:45:25;1.83;;;1.40;;
5355;SDS011;70449;52.486;13.386;2023-06-04T09:47:54;3.00;;;1.37;;
5355;SDS011;70449;52.486;13.386;2023-06-04T09:50:27;5.50;;;1.30;;
5355;SDS011;70449;52.486;13.386;2023-06-04T09:52:58;2.10;;;1.30;;
5355;SDS011;70449;52.486;13.386;2023-06-04T09:55:28;5.67;;;1.63;;
5355;SDS011;70449;52.486;13.386;2023-06-04T09:57:56;2.20;;;1.40;;
5355;SDS011;70449;52.486;13.386;2023-06-04T10:00:25;4.97;;;1.50;;
5355;SDS011;70449;52.486;13.386;2023-06-04T10:02:55;2.50;;;1.70;;
5355;SDS011;70449;52.486;13.386;2023-06-04T10:05:25;3.50;;;1.40;;
5355;SDS011;70449;52.486;13.386;2023-06-04T10:07:53;2.20;;;1.20;;
5355;SDS011;70449;52.486;13.386;2023-06-04T10:10:25;2.30;;;1.30;;
5355;SDS011;70449;52.486;13.386;2023-06-04T10:12:55;2.77;;;1.60;;
5355;SDS011;70449;52.486;13.386;2023-06-04T10:15:29;2.20;;;1.50;;
5355;SDS011;70449;52.486;13.386;2023-06-04T10:17:59;4.67;;;1.80;;
5355;SDS011;70449;52.486;13.386;2023-06-04T10:20:28;2.00;;;1.37;;
5355;SDS011;70449;52.486;13.386;2023-06-04T10:22:57;2.03;;;1.53;;
5355;SDS011;70449;52.486;13.386;2023-06-04T10:25:25;7.13;;;1.73;;
5355;SDS011;70449;52.486;13.386;2023-06-04T10:27:55;1.90;;;1.53;;
5355;SDS011;70449;52.486;13.386;2023-06-04T10:30:23;8.63;;;1.40;;
5355;SDS011;70449;52.486;13.386;2023-06-04T10:32:51;2.40;;;1.27;;
5355;SDS011;70449;52.486;13.386;2023-06-04T10:35:28;4.70;;;1.90;;
5355;SDS011;70449;52.486;13.386;2023-06-04T10:38:04;5.73;;;1.97;;
5355;SDS011;70449;52.486;13.386;2023-06-04T10:40:33;3.63;;;1.50;;
5355;SDS011;70449;52.486;13.386;2023-06-04T10:43:05;1.80;;;1.60;;
5355;SDS011;70449;52.486;13.386;2023-06-04T10:45:33;5.97;;;1.67;;
5355;SDS011;70449;52.486;13.386;2023-06-04T10:48:01;1.57;;;1.30;;
5355;SDS011;70449;52.486;13.386;2023-06-04T10:50:29;2.07;;;1.50;;
5355;SDS011;70449;52.486;13.386;2023-06-04T10:52:58;2.10;;;1.60;;
5355;SDS011;70449;52.486;13.386;2023-06-04T10:55:28;6.70;;;1.67;;
5355;SDS011;70449;52.486;13.386;2023-06-04T10:57:57;2.13;;;1.30;;
5355;SDS011;70449;52.486;13.386;2023-06-04T11:00:37;3.03;;;1.93;;
5355;SDS011;70449;52.486;13.386;2023-06-04T11:03:05;4.73;;;1.50;;
5355;SDS011;70449;52.486;13.386;2023-06-04T11:05:34;2.17;;;1.40;;
5355;SDS011;70449;52.486;13.386;2023-06-04T11:08:02;1.37;;;1.27;;
5355;SDS011;70449;52.486;13.386;2023-06-04T11:10:31;7.20;;;1.70;;
5355;SDS011;70449;52.486;13.386;2023-06-04T11:13:01;8.10;;;1.87;;
5355;SDS011;70449;52.486;13.386;2023-06-04T11:15:41;4.97;;;2.70;;
5355;SDS011;70449;52.486;13.386;2023-06-04T11:18:13;3.90;;;1.60;;
5355;SDS011;70449;52.486;13.386;2023-06-04T11:20:43;2.93;;;1.60;;
5355;SDS011;70449;52.486;13.386;2023-06-04T11:23:11;2.40;;;1.63;;
5355;SDS011;70449;52.486;13.386;2023-06-04T11:25:39;1.73;;;1.57;;
5355;SDS011;70449;52.486;13.386;2023-06-04T11:28:08;1.30;;;1.20;;
5355;SDS011;70449;52.486;13.386;2023-06-04T11:30:44;2.67;;;1.90;;
5355;SDS011;70449;52.486;13.386;2023-06-04T11:33:23;7.80;;;2.00;;
5355;SDS011;70449;52.486;13.386;2023-06-04T11:35:50;6.77;;;1.57;;
5355;SDS011;70449;52.486;13.386;2023-06-04T11:38:18;1.70;;;1.30;;
5355;SDS011;70449;52.486;13.386;2023-06-04T11:40:54;2.43;;;1.70;;
5355;SDS011;70449;52.486;13.386;2023-06-04T11:43:23;5.93;;;1.87;;
5355;SDS011;70449;52.486;13.386;2023-06-04T11:45:52;2.40;;;1.40;;
5355;SDS011;70449;52.486;13.386;2023-06-04T11:48:20;3.33;;;1.80;;
5355;SDS011;70449;52.486;13.386;2023-06-04T11:50:48;7.33;;;1.70;;
5355;SDS011;70449;52.486;13.386;2023-06-04T11:53:15;3.33;;;1.40;;
5355;SDS011;70449;52.486;13.386;2023-06-04T11:55:43;1.70;;;1.40;;
5355;SDS011;70449;52.486;13.386;2023-06-04T11:58:11;2.50;;;1.57;;
5355;SDS011;70449;52.486;13.386;2023-06-04T12:00:38;4.60;;;1.77;;
5355;SDS011;70449;52.486;13.386;2023-06-04T12:03:07;3.60;;;2.00;;
5355;SDS011;70449;52.486;13.386;2023-06-04T12:05:35;2.40;;;1.63;;
5355;SDS011;70449;52.486;13.386;2023-06-04T12:08:05;3.63;;;1.80;;
5355;SDS011;70449;52.486;13.386;2023-06-04T12:10:38;3.50;;;1.83;;
5355;SDS011;70449;52.486;13.386;2023-06-04T12:13:06;4.10;;;1.63;;
5355;SDS011;70449;52.486;13.386;2023-06-04T12:15:33;3.85;;;1.50;;
5355;SDS011;70449;52.486;13.386;2023-06-04T12:18:01;4.33;;;1.47;;
5355;SDS011;70449;52.486;13.386;2023-06-04T12:20:34;3.40;;;1.80;;
5355;SDS011;70449;52.486;13.386;2023-06-04T12:23:03;3.20;;;1.00;;
5355;SDS011;70449;52.486;13.386;2023-06-04T12:25:32;3.90;;;1.83;;
5355;SDS011;70449;52.486;13.386;2023-06-04T12:28:02;2.50;;;1.58;;
5355;SDS011;70449;52.486;13.386;2023-06-04T12:30:35;9.13;;;1.70;;
5355;SDS011;70449;52.486;13.386;2023-06-04T12:33:03;2.75;;;1.40;;
5355;SDS011;70449;52.486;13.386;2023-06-04T12:35:31;6.05;;;1.50;;
5355;SDS011;70449;52.486;13.386;2023-06-04T12:38:02;5.50;;;1.58;;
5355;SDS011;70449;52.486;13.386;2023-06-04T12:40:30;2.75;;;1.60;;
5355;SDS011;70449;52.486;13.386;2023-06-04T12:42:58;4.90;;;1.70;;
5355;SDS011;70449;52.486;13.386;2023-06-04T12:45:25;4.22;;;1.65;;
5355;SDS011;70449;52.486;13.386;2023-06-04T12:47:52;3.88;;;1.80;;
5355;SDS011;70449;52.486;13.386;2023-06-04T12:50:20;7.40;;;2.60;;
5355;SDS011;70449;52.486;13.386;2023-06-04T12:52:49;5.15;;;1.77;;
5355;SDS011;70449;52.486;13.386;2023-06-04T12:55:16;9.30;;;1.80;;
5355;SDS011;70449;52.486;13.386;2023-06-04T12:57:43;3.38;;;1.90;;
5355;SDS011;70449;52.486;13.386;2023-06-04T13:00:12;8.48;;;1.80;;
5355;SDS011;70449;52.486;13.386;2023-06-04T13:02:41;4.38;;;2.08;;
5355;SDS011;70449;52.486;13.386;2023-06-04T13:05:08;2.85;;;2.17;;
5355;SDS011;70449;52.486;13.386;2023-06-04T13:07:36;4.38;;;2.17;;
5355;SDS011;70449;52.486;13.386;2023-06-04T13:10:05;3.95;;;1.55;;
5355;SDS011;70449;52.486;13.386;2023-06-04T13:12:33;4.75;;;1.88;;
5355;SDS011;70449;52.486;13.386;2023-06-04T13:15:00;5.53;;;1.60;;
5355;SDS011;70449;52.486;13.386;2023-06-04T13:17:28;2.10;;;1.52;;
5355;SDS011;70449;52.486;13.386;2023-06-04T13:19:56;2.65;;;1.60;;
5355;SDS011;70449;52.486;13.386;2023-06-04T13:22:23;6.43;;;1.42;;
5355;SDS011;70449;52.486;13.386;2023-06-04T13:24:50;4.43;;;1.60;;
5355;SDS011;70449;52.486;13.386;2023-06-04T13:27:19;15.55;;;1.77;;
5355;SDS011;70449;52.486;13.386;2023-06-04T13:29:46;5.72;;;1.40;;
5355;SDS011;70449;52.486;13.386;2023-06-04T13:32:14;1.83;;;1.50;;
5355;SDS011;70449;52.486;13.386;2023-06-04T13:34:41;2.65;;;2.10;;
5355;SDS011;70449;52.486;13.386;2023-06-04T13:37:08;7.18;;;1.80;;
5355;SDS011;70449;52.486;13.386;2023-06-04T13:39:37;2.40;;;1.65;;
5355;SDS011;70449;52.486;13.386;2023-06-04T13:42:05;2.13;;;1.58;;
5355;SDS011;70449;52.486;13.386;2023-06-04T13:44:34;1.67;;;1.58;;
5355;SDS011;70449;52.486;13.386;2023-06-04T13:47:01;5.20;;;1.42;;
5355;SDS011;70449;52.486;13.386;2023-06-04T13:49:29;1.88;;;1.60;;
5355;SDS011;70449;52.486;13.386;2023-06-04T13:51:59;3.40;;;1.45;;
5355;SDS011;70449;52.486;13.386;2023-06-04T13:54:27;3.15;;;1.80;;
5355;SDS011;70449;52.486;13.386;2023-06-04T13:56:54;6.00;;;2.47;;
5355;SDS011;70449;52.486;13.386;2023-06-04T13:59:22;2.60;;;1.45;;
5355;SDS011;70449;52.486;13.386;2023-06-04T14:01:50;4.65;;;2.28;;
5355;SDS011;70449;52.486;13.386;2023-06-04T14:04:18;8.80;;;2.13;;
5355;SDS011;70449;52.486;13.386;2023-06-04T14:06:45;7.72;;;1.80;;
5355;SDS011;70449;52.486;13.386;2023-06-04T14:09:12;3.42;;;2.80;;
5355;SDS011;70449;52.486;13.386;2023-06-04T14:11:40;4.25;;;1.73;;
5355;SDS011;70449;52.486;13.386;2023-06-04T14:14:08;3.33;;;1.98;;
5355;SDS011;70449;52.486;13.386;2023-06-04T14:16:35;4.78;;;1.70;;
5355;SDS011;70449;52.486;13.386;2023-06-04T14:19:04;16.17;;;1.60;;
5355;SDS011;70449;52.486;13.386;2023-06-04T14:21:31;8.25;;;2.05;;
5355;SDS011;70449;52.486;13.386;2023-06-04T14:23:59;2.28;;;1.45;;
5355;SDS011;70449;52.486;13.386;2023-06-04T14:26:26;2.22;;;1.60;;
5355;SDS011;70449;52.486;13.386;2023-06-04T14:28:54;4.50;;;2.10;;
5355;SDS011;70449;52.486;13.386;2023-06-04T14:31:22;3.70;;;1.50;;
5355;SDS011;70449;52.486;13.386;2023-06-04T14:33:49;5.03;;;1.83;;
5355;SDS011;70449;52.486;13.386;2023-06-04T14:36:18;4.03;;;1.88;;
5355;SDS011;70449;52.486;13.386;2023-06-04T14:38:46;1.90;;;1.70;;
5355;SDS011;70449;52.486;13.386;2023-06-04T14:41:14;3.45;;;2.10;;
5355;SDS011;70449;52.486;13.386;2023-06-04T14:43:42;3.05;;;1.42;;
5355;SDS011;70449;52.486;13.386;2023-06-04T14:46:09;4.18;;;2.22;;
5355;SDS011;70449;52.486;13.386;2023-06-04T14:48:36;2.53;;;1.60;;
5355;SDS011;70449;52.486;13.386;2023-06-04T14:51:03;5.50;;;2.22;;
5355;SDS011;70449;52.486;13.386;2023-06-04T14:53:32;4.13;;;2.47;;
5355;SDS011;70449;52.486;13.386;2023-06-04T14:55:59;6.72;;;2.45;;